Time;durP1;ratioP1;P1;durP2;ratioP2;P2;SDS_P1;SDS_P2;PMS_P1;PMS_P2;Temp;Humidity;BMP_temperature;BMP_pressure;BME280_temperature;BME280_humidity;BME280_pressure;Samples;Min_cycle;Max_cycle;Signal;HPM_P1;HPM_P2
2022/04/06 00:02:12;;;;;;;;;16.25;14.75;;;;;;;;5046597;28;45449;-71
2022/04/06 00:04:37;;;;;;;;;15.50;14.00;;;;;;;;5044948;28;46078;-71
2022/04/06 00:07:03;;;;;;;;;8.00;8.00;;;;;;;;5046108;28;45271;-71
2022/04/06 00:09:28;;;;;;;;;20.75;18.00;;;;;;;;5045063;28;46834;-71
2022/04/06 00:11:53;;;;;;;;;17.75;13.75;;;;;;;;5044356;28;45350;-71
2022/04/06 00:14:19;;;;;;;;;10.25;10.25;;;;;;;;5046013;28;45345;-71
2022/04/06 00:16:45;;;;;;;;;13.00;12.00;;;;;;;;5045980;28;45505;-71
2022/04/06 00:19:10;;;;;;;;;14.75;13.00;;;;;;;;5044019;28;45465;-71
2022/04/06 00:21:35;;;;;;;;;14.00;11.50;;;;;;;;5046390;28;45409;-71
2022/04/06 00:24:01;;;;;;;;;13.50;12.00;;;;;;;;5044264;28;45644;-71
2022/04/06 00:26:27;;;;;;;;;12.00;10.25;;;;;;;;5045197;28;45961;-71
2022/04/06 00:28:52;;;;;;;;;11.50;11.00;;;;;;;;5045675;28;45639;-71
2022/04/06 00:31:17;;;;;;;;;13.00;12.50;;;;;;;;5043159;28;45401;-71
2022/04/06 00:33:43;;;;;;;;;12.75;12.00;;;;;;;;5043728;28;45338;-71
2022/04/06 00:36:08;;;;;;;;;16.75;13.50;;;;;;;;5045980;28;45333;-71
2022/04/06 00:38:33;;;;;;;;;16.25;13.00;;;;;;;;5043003;28;45394;-71
2022/04/06 00:40:59;;;;;;;;;12.50;11.75;;;;;;;;5045593;28;45367;-71
2022/04/06 00:43:24;;;;;;;;;10.25;9.00;;;;;;;;5045484;28;45358;-71
2022/04/06 00:45:49;;;;;;;;;10.75;10.75;;;;;;;;5042980;28;45618;-71
2022/04/06 00:48:15;;;;;;;;;11.50;11.50;;;;;;;;5043983;28;46289;-71
2022/04/06 00:50:42;;;;;;;;;12.00;12.00;;;;;;;;5045559;28;45524;-71
2022/04/06 00:53:07;;;;;;;;;13.00;12.25;;;;;;;;5045938;28;45452;-70
2022/04/06 00:55:35;;;;;;;;;14.75;12.75;;;;;;;;5044257;28;45507;-72
2022/04/06 00:58:01;;;;;;;;;12.25;11.00;;;;;;;;5044194;28;46229;-71
2022/04/06 01:00:27;;;;;;;;;10.25;10.25;;;;;;;;5045453;28;45307;-72
2022/04/06 01:02:53;;;;;;;;;13.00;11.00;;;;;;;;5043854;28;45416;-71
2022/04/06 01:05:19;;;;;;;;;12.50;12.00;;;;;;;;5045686;28;45571;-71
2022/04/06 01:07:49;;;;;;;;;13.25;12.25;;;;;;;;5045053;28;45379;-71
2022/04/06 01:10:14;;;;;;;;;15.00;14.25;;;;;;;;5043661;28;45518;-72
2022/04/06 01:12:40;;;;;;;;;12.00;10.50;;;;;;;;5044869;28;45442;-71
2022/04/06 01:15:06;;;;;;;;;12.50;8.25;;;;;;;;5045618;28;45726;-72
2022/04/06 01:17:32;;;;;;;;;12.00;10.25;;;;;;;;5042042;28;45446;-71
2022/04/06 01:20:00;;;;;;;;;11.50;10.75;;;;;;;;5045336;28;45555;-71
2022/04/06 01:22:26;;;;;;;;;13.50;11.75;;;;;;;;5045122;28;45708;-71
2022/04/06 01:24:52;;;;;;;;;17.00;14.25;;;;;;;;5043726;28;45592;-71
2022/04/06 01:27:17;;;;;;;;;13.75;12.25;;;;;;;;5043823;28;46720;-71
2022/04/06 01:29:43;;;;;;;;;11.25;10.25;;;;;;;;5044411;28;45506;-71
2022/04/06 01:32:11;;;;;;;;;27.75;21.00;;;;;;;;5043780;28;45512;-71
2022/04/06 01:34:37;;;;;;;;;66.75;50.00;;;;;;;;5043986;28;45323;-71
2022/04/06 01:37:04;;;;;;;;;59.25;43.50;;;;;;;;5043373;28;48024;-71
2022/04/06 01:39:30;;;;;;;;;10.50;8.00;;;;;;;;5045514;28;45492;-71
2022/04/06 01:41:55;;;;;;;;;11.50;9.00;;;;;;;;5045513;28;45438;-71
2022/04/06 01:44:21;;;;;;;;;9.75;8.50;;;;;;;;5047056;28;45694;-71
2022/04/06 01:46:46;;;;;;;;;8.00;7.75;;;;;;;;5048267;28;45497;-71
2022/04/06 01:52:13;;;;;;;;;52.75;39.50;;;;;;;;5046794;28;45411;-71
2022/04/06 01:54:56;;;;;;;;;26.75;24.25;;;;;;;;5047334;28;45409;-71
2022/04/06 01:57:21;;;;;;;;;12.50;12.00;;;;;;;;5047098;28;45315;-71
2022/04/06 01:59:47;;;;;;;;;9.50;9.00;;;;;;;;5047059;28;45455;-71
2022/04/06 02:02:13;;;;;;;;;10.25;8.75;;;;;;;;5047398;28;45499;-71
2022/04/06 02:04:39;;;;;;;;;13.50;12.75;;;;;;;;5047089;28;45365;-71
2022/04/06 02:07:05;;;;;;;;;8.00;8.00;;;;;;;;5047560;28;45412;-72
2022/04/06 02:09:30;;;;;;;;;10.75;8.00;;;;;;;;5046924;28;45400;-71
2022/04/06 02:11:56;;;;;;;;;9.75;9.75;;;;;;;;5046428;28;45372;-71
2022/04/06 02:14:22;;;;;;;;;9.25;9.00;;;;;;;;5048034;28;45460;-71
2022/04/06 02:16:47;;;;;;;;;7.00;7.00;;;;;;;;5047755;28;46659;-71
2022/04/06 02:19:12;;;;;;;;;7.25;7.00;;;;;;;;5044799;28;45400;-71
2022/04/06 02:21:38;;;;;;;;;7.75;7.50;;;;;;;;5048012;28;45409;-71
2022/04/06 02:24:03;;;;;;;;;9.00;8.00;;;;;;;;5047829;28;45486;-71
2022/04/06 02:26:29;;;;;;;;;14.25;11.00;;;;;;;;5045921;28;46535;-71
2022/04/06 02:28:55;;;;;;;;;32.50;27.00;;;;;;;;5047961;28;45620;-70
2022/04/06 02:31:22;;;;;;;;;33.25;27.00;;;;;;;;5046968;28;45484;-71
2022/04/06 02:33:47;;;;;;;;;18.50;15.25;;;;;;;;5046840;28;45513;-71
2022/04/06 02:36:12;;;;;;;;;13.50;13.25;;;;;;;;5047775;28;45492;-71
2022/04/06 02:38:38;;;;;;;;;13.25;10.00;;;;;;;;5044915;28;45637;-71
2022/04/06 02:41:07;;;;;;;;;10.25;8.00;;;;;;;;5047373;28;45601;-71
2022/04/06 02:43:32;;;;;;;;;14.00;11.25;;;;;;;;5046992;28;45529;-71
2022/04/06 02:45:58;;;;;;;;;7.00;7.00;;;;;;;;5045964;28;46069;-71
2022/04/06 02:48:23;;;;;;;;;13.00;10.50;;;;;;;;5046964;28;45544;-71
2022/04/06 02:50:48;;;;;;;;;10.00;8.00;;;;;;;;5047529;28;45471;-71
2022/04/06 02:53:14;;;;;;;;;10.00;8.50;;;;;;;;5046021;28;45400;-71
2022/04/06 02:55:39;;;;;;;;;7.00;7.00;;;;;;;;5047295;28;46793;-71
2022/04/06 02:58:05;;;;;;;;;13.50;10.50;;;;;;;;5045885;28;45430;-71
2022/04/06 03:00:32;;;;;;;;;14.25;14.25;;;;;;;;5044563;28;45778;-71
2022/04/06 03:02:58;;;;;;;;;16.00;14.00;;;;;;;;5048044;28;45506;-71
2022/04/06 03:05:24;;;;;;;;;15.50;13.50;;;;;;;;5046147;28;45456;-72
2022/04/06 03:07:50;;;;;;;;;14.00;13.00;;;;;;;;5045780;28;45481;-71
2022/04/06 03:10:15;;;;;;;;;17.25;16.75;;;;;;;;5046192;28;45750;-71
2022/04/06 03:12:40;;;;;;;;;13.75;12.50;;;;;;;;5046237;28;45342;-71
2022/04/06 03:15:06;;;;;;;;;10.75;9.50;;;;;;;;5046530;28;45411;-71
2022/04/06 03:17:31;;;;;;;;;8.50;8.00;;;;;;;;5045986;28;45541;-71
2022/04/06 03:19:57;;;;;;;;;8.00;8.00;;;;;;;;5045488;28;45408;-71
2022/04/06 03:22:22;;;;;;;;;8.25;8.25;;;;;;;;5045620;28;45576;-71
2022/04/06 03:24:47;;;;;;;;;8.50;8.25;;;;;;;;5046670;28;45428;-71
2022/04/06 03:27:13;;;;;;;;;7.00;7.00;;;;;;;;5043777;28;45428;-71
2022/04/06 03:29:40;;;;;;;;;9.00;8.00;;;;;;;;5045880;28;45383;-71
2022/04/06 03:32:06;;;;;;;;;8.00;7.75;;;;;;;;5046765;28;45271;-71
2022/04/06 03:34:31;;;;;;;;;8.75;7.00;;;;;;;;5044895;28;45507;-71
2022/04/06 03:36:57;;;;;;;;;10.00;9.00;;;;;;;;5046703;28;45540;-71
2022/04/06 03:39:22;;;;;;;;;27.50;20.00;;;;;;;;5044592;28;45427;-71
2022/04/06 03:41:47;;;;;;;;;56.00;43.75;;;;;;;;5044673;28;45481;-71
2022/04/06 03:44:13;;;;;;;;;20.75;18.00;;;;;;;;5045805;28;47908;-71
2022/04/06 03:46:38;;;;;;;;;17.25;14.75;;;;;;;;5045158;28;45480;-71
2022/04/06 03:49:03;;;;;;;;;15.00;14.50;;;;;;;;5045250;28;45456;-71
2022/04/06 03:51:29;;;;;;;;;25.50;24.25;;;;;;;;5045489;28;46236;-71
2022/04/06 03:53:54;;;;;;;;;20.00;19.25;;;;;;;;5043249;28;46468;-71
2022/04/06 03:56:20;;;;;;;;;22.50;21.00;;;;;;;;5046339;28;45478;-71
2022/04/06 03:58:45;;;;;;;;;12.00;11.25;;;;;;;;5045869;28;45417;-71
2022/04/06 04:01:10;;;;;;;;;17.25;16.00;;;;;;;;5045226;28;45420;-71
2022/04/06 04:03:35;;;;;;;;;8.50;7.50;;;;;;;;5044975;28;45504;-70
2022/04/06 04:06:01;;;;;;;;;8.25;8.00;;;;;;;;5044988;28;45514;-71
2022/04/06 04:08:28;;;;;;;;;7.75;7.75;;;;;;;;5045606;28;45421;-71
2022/04/06 04:10:53;;;;;;;;;10.25;10.00;;;;;;;;5046896;28;45457;-71
2022/04/06 04:13:19;;;;;;;;;12.75;10.50;;;;;;;;5043117;28;46183;-71
2022/04/06 04:15:44;;;;;;;;;7.50;6.50;;;;;;;;5044233;28;45503;-71
2022/04/06 04:18:10;;;;;;;;;10.50;8.50;;;;;;;;5055681;28;45429;-71
2022/04/06 04:20:35;;;;;;;;;8.00;8.00;;;;;;;;5056520;28;45538;-71
2022/04/06 04:23:00;;;;;;;;;7.00;7.00;;;;;;;;5056938;28;46571;-71
2022/04/06 04:25:26;;;;;;;;;9.50;9.50;;;;;;;;5057093;28;45389;-71
2022/04/06 04:27:51;;;;;;;;;7.00;7.00;;;;;;;;5057208;28;45235;-71
2022/04/06 04:30:16;;;;;;;;;7.75;7.75;;;;;;;;5057189;28;45467;-71
2022/04/06 04:32:42;;;;;;;;;9.00;8.00;;;;;;;;5055766;28;45340;-71
2022/04/06 04:35:08;;;;;;;;;9.75;9.25;;;;;;;;5057249;28;45483;-71
2022/04/06 04:37:34;;;;;;;;;13.50;11.50;;;;;;;;5056860;28;45484;-71
2022/04/06 04:40:00;;;;;;;;;12.75;12.25;;;;;;;;5057099;28;45612;-71
2022/04/06 04:42:25;;;;;;;;;9.00;9.00;;;;;;;;5056876;28;46023;-71
2022/04/06 04:44:51;;;;;;;;;8.25;8.00;;;;;;;;5056953;28;45407;-71
2022/04/06 04:47:17;;;;;;;;;7.75;7.75;;;;;;;;5057215;28;45457;-71
2022/04/06 04:49:43;;;;;;;;;12.00;10.00;;;;;;;;5055775;28;45517;-71
2022/04/06 04:52:08;;;;;;;;;10.50;9.00;;;;;;;;5057072;28;45594;-71
2022/04/06 04:54:33;;;;;;;;;8.25;8.25;;;;;;;;5056797;28;45279;-71
2022/04/06 04:56:59;;;;;;;;;10.50;9.50;;;;;;;;5057056;28;45366;-71
2022/04/06 04:59:25;;;;;;;;;9.00;9.00;;;;;;;;5056964;28;45488;-71
2022/04/06 05:01:50;;;;;;;;;9.50;8.75;;;;;;;;5056721;28;45323;-72
2022/04/06 05:04:16;;;;;;;;;7.50;7.50;;;;;;;;5056706;28;45346;-71
2022/04/06 05:06:41;;;;;;;;;9.50;8.50;;;;;;;;5056545;28;45648;-71
2022/04/06 05:09:07;;;;;;;;;13.25;11.00;;;;;;;;5057250;28;45357;-71
2022/04/06 05:11:33;;;;;;;;;13.75;11.50;;;;;;;;5056626;28;46282;-71
2022/04/06 05:13:58;;;;;;;;;10.00;9.25;;;;;;;;5055330;28;45530;-71
2022/04/06 05:16:23;;;;;;;;;13.50;10.00;;;;;;;;5059397;28;45420;-71
2022/04/06 05:18:49;;;;;;;;;14.50;13.75;;;;;;;;5060448;28;45287;-71
2022/04/06 05:21:14;;;;;;;;;17.50;15.50;;;;;;;;5059950;28;45475;-71
2022/04/06 05:23:39;;;;;;;;;62.75;47.75;;;;;;;;5060172;28;45467;-71
2022/04/06 05:26:05;;;;;;;;;53.25;39.50;;;;;;;;5060042;28;45263;-71
2022/04/06 05:28:30;;;;;;;;;18.00;15.25;;;;;;;;5060286;28;45331;-71
2022/04/06 05:30:55;;;;;;;;;15.50;15.00;;;;;;;;5058328;28;45416;-71
2022/04/06 05:33:21;;;;;;;;;11.25;10.75;;;;;;;;5059785;28;45413;-71
2022/04/06 05:35:47;;;;;;;;;14.25;13.25;;;;;;;;5059636;28;45475;-71
2022/04/06 05:38:12;;;;;;;;;29.25;27.25;;;;;;;;5059067;28;45432;-71
2022/04/06 05:40:38;;;;;;;;;28.75;28.00;;;;;;;;5059665;28;45461;-71
2022/04/06 05:43:03;;;;;;;;;12.50;11.25;;;;;;;;5059651;28;45567;-71
2022/04/06 05:45:29;;;;;;;;;14.00;14.00;;;;;;;;5059419;28;45763;-71
2022/04/06 05:47:54;;;;;;;;;9.25;9.25;;;;;;;;5059684;28;45477;-71
2022/04/06 05:50:19;;;;;;;;;15.25;12.50;;;;;;;;5059291;28;46195;-71
2022/04/06 05:52:45;;;;;;;;;13.50;11.50;;;;;;;;5059468;28;45472;-71
2022/04/06 05:55:11;;;;;;;;;15.00;13.75;;;;;;;;5059807;28;45466;-71
2022/04/06 05:57:36;;;;;;;;;14.75;14.00;;;;;;;;5059656;28;45206;-71
2022/04/06 06:00:02;;;;;;;;;16.75;14.00;;;;;;;;5059365;28;45699;-71
2022/04/06 06:02:29;;;;;;;;;22.00;21.25;;;;;;;;5064382;28;45522;-71
2022/04/06 06:04:54;;;;;;;;;10.00;9.50;;;;;;;;5067803;27;45557;-70
2022/04/06 06:07:20;;;;;;;;;9.75;9.00;;;;;;;;5069957;28;45519;-71
2022/04/06 06:09:46;;;;;;;;;14.25;14.25;;;;;;;;5067757;28;46029;-71
2022/04/06 06:12:11;;;;;;;;;15.00;12.50;;;;;;;;5068378;27;45526;-72
2022/04/06 06:14:37;;;;;;;;;9.25;9.00;;;;;;;;5069192;28;45461;-71
2022/04/06 06:17:02;;;;;;;;;10.75;10.00;;;;;;;;5065791;28;45523;-71
2022/04/06 06:19:28;;;;;;;;;13.00;11.00;;;;;;;;5067368;28;45587;-71
2022/04/06 06:21:53;;;;;;;;;17.00;15.25;;;;;;;;5068365;28;45518;-72
2022/04/06 06:24:20;;;;;;;;;14.25;13.75;;;;;;;;5067170;27;45589;-71
2022/04/06 06:26:46;;;;;;;;;14.00;14.00;;;;;;;;5064694;28;45806;-71
2022/04/06 06:29:12;;;;;;;;;14.75;12.25;;;;;;;;5066862;27;45507;-71
2022/04/06 06:31:37;;;;;;;;;14.00;13.25;;;;;;;;5068637;28;45722;-71
2022/04/06 06:34:03;;;;;;;;;15.00;14.00;;;;;;;;5054180;27;45456;-70
2022/04/06 06:36:28;;;;;;;;;56.75;46.50;;;;;;;;5047910;28;45642;-71
2022/04/06 06:38:54;;;;;;;;;21.50;21.00;;;;;;;;5045657;28;46900;-70
2022/04/06 06:41:20;;;;;;;;;14.75;14.75;;;;;;;;5046005;28;45500;-71
2022/04/06 06:43:48;;;;;;;;;13.75;12.50;;;;;;;;5047717;28;45418;-71
2022/04/06 06:46:14;;;;;;;;;15.25;15.00;;;;;;;;5047267;28;45496;-71
2022/04/06 06:48:39;;;;;;;;;19.25;17.50;;;;;;;;5045704;28;45453;-71
2022/04/06 06:51:04;;;;;;;;;7.25;5.50;;;;;;;;5047459;28;45444;-71
2022/04/06 06:53:31;;;;;;;;;8.00;8.00;;;;;;;;5046307;28;45456;-71
2022/04/06 06:55:56;;;;;;;;;11.50;11.00;;;;;;;;5051539;28;45413;-71
2022/04/06 06:58:21;;;;;;;;;11.00;10.00;;;;;;;;5067807;28;46008;-71
2022/04/06 07:00:47;;;;;;;;;8.50;8.50;;;;;;;;5047444;27;45708;-71
2022/04/06 07:03:12;;;;;;;;;10.50;10.50;;;;;;;;5046857;28;45228;-71
2022/04/06 07:05:37;;;;;;;;;13.75;11.50;;;;;;;;5047816;28;45344;-71
2022/04/06 07:08:03;;;;;;;;;10.75;9.75;;;;;;;;5048117;28;46486;-71
2022/04/06 07:10:29;;;;;;;;;17.25;16.50;;;;;;;;5046971;28;45606;-71
2022/04/06 07:12:55;;;;;;;;;16.75;16.00;;;;;;;;5046958;28;45340;-71
2022/04/06 07:15:21;;;;;;;;;13.25;12.00;;;;;;;;5047449;28;45437;-71
2022/04/06 07:17:53;;;;;;;;;12.00;12.00;;;;;;;;5048345;28;46037;-71
2022/04/06 07:20:18;;;;;;;;;17.25;16.25;;;;;;;;5055899;28;45307;-71
2022/04/06 07:22:43;;;;;;;;;23.50;18.50;;;;;;;;5054587;28;45503;-71
2022/04/06 07:25:09;;;;;;;;;21.00;19.25;;;;;;;;5038174;28;45492;-71
2022/04/06 07:27:36;;;;;;;;;32.75;29.75;;;;;;;;5045184;28;45380;-71
2022/04/06 07:30:06;;;;;;;;;19.25;17.75;;;;;;;;5047740;28;45376;-72
2022/04/06 07:32:32;;;;;;;;;10.75;8.50;;;;;;;;5045311;28;45404;-71
2022/04/06 07:34:57;;;;;;;;;38.00;34.50;;;;;;;;5046626;28;45541;-71
2022/04/06 07:37:23;;;;;;;;;17.00;17.00;;;;;;;;5041221;28;45482;-73
2022/04/06 07:39:48;;;;;;;;;24.75;20.50;;;;;;;;5037237;28;45356;-72
2022/04/06 07:42:14;;;;;;;;;17.25;16.75;;;;;;;;5037497;28;45421;-73
2022/04/06 07:44:39;;;;;;;;;18.25;17.00;;;;;;;;5037339;28;45286;-73
2022/04/06 07:47:05;;;;;;;;;18.75;17.50;;;;;;;;5035934;28;47214;-73
2022/04/06 07:49:30;;;;;;;;;15.50;14.00;;;;;;;;5037370;28;45451;-72
2022/04/06 07:51:56;;;;;;;;;22.25;21.00;;;;;;;;5037199;28;45362;-73
2022/04/06 07:54:21;;;;;;;;;12.00;11.25;;;;;;;;5037677;28;45259;-73
2022/04/06 07:56:47;;;;;;;;;19.50;19.50;;;;;;;;5036027;28;45409;-73
2022/04/06 07:59:13;;;;;;;;;13.25;11.75;;;;;;;;5037651;28;45354;-72
2022/04/06 08:01:38;;;;;;;;;15.75;15.25;;;;;;;;5035838;28;45471;-72
2022/04/06 08:04:03;;;;;;;;;12.75;11.00;;;;;;;;5037595;28;45516;-73
2022/04/06 08:06:29;;;;;;;;;23.00;20.75;;;;;;;;5035835;28;47648;-73
2022/04/06 08:08:54;;;;;;;;;16.50;15.50;;;;;;;;5037288;28;45503;-73
2022/04/06 08:11:20;;;;;;;;;11.75;11.75;;;;;;;;5037459;28;45306;-72
2022/04/06 08:13:46;;;;;;;;;31.00;30.50;;;;;;;;5036266;28;45236;-73
2022/04/06 08:16:11;;;;;;;;;24.25;21.50;;;;;;;;5036966;28;46032;-73
2022/04/06 08:18:37;;;;;;;;;15.00;15.00;;;;;;;;5036662;28;45500;-73
2022/04/06 08:21:05;;;;;;;;;28.00;23.50;;;;;;;;5037146;28;45527;-72
2022/04/06 08:23:30;;;;;;;;;14.00;14.00;;;;;;;;5037571;28;45415;-72
2022/04/06 08:25:56;;;;;;;;;13.25;13.00;;;;;;;;5035535;28;46463;-73
2022/04/06 08:28:21;;;;;;;;;22.50;22.50;;;;;;;;5036957;28;45372;-73
2022/04/06 08:30:47;;;;;;;;;18.00;18.00;;;;;;;;5037252;28;45478;-72
2022/04/06 08:33:13;;;;;;;;;17.50;16.50;;;;;;;;5037387;28;45327;-73
2022/04/06 08:35:39;;;;;;;;;17.00;15.25;;;;;;;;5035616;28;45564;-73
2022/04/06 08:38:04;;;;;;;;;16.00;15.00;;;;;;;;5036670;28;46083;-73
2022/04/06 08:40:33;;;;;;;;;9.00;8.25;;;;;;;;5037016;28;45499;-73
2022/04/06 08:43:00;;;;;;;;;20.75;19.75;;;;;;;;5035589;28;45572;-73
2022/04/06 08:45:25;;;;;;;;;19.00;18.25;;;;;;;;5036640;28;46084;-73
2022/04/06 08:47:51;;;;;;;;;10.00;10.00;;;;;;;;5036699;28;45361;-73
2022/04/06 08:50:17;;;;;;;;;12.25;11.25;;;;;;;;5039710;28;45327;-73
2022/04/06 08:52:44;;;;;;;;;13.00;11.75;;;;;;;;5038975;28;45397;-72
2022/04/06 08:55:09;;;;;;;;;21.00;19.00;;;;;;;;5039955;28;46153;-73
2022/04/06 08:57:35;;;;;;;;;12.00;10.75;;;;;;;;5040019;28;45412;-73
2022/04/06 09:00:00;;;;;;;;;10.25;10.25;;;;;;;;5038979;28;45570;-73
2022/04/06 09:02:27;;;;;;;;;10.75;9.75;;;;;;;;5038815;28;45342;-73
2022/04/06 09:04:53;;;;;;;;;13.50;13.00;;;;;;;;5038476;28;46551;-73
2022/04/06 09:07:20;;;;;;;;;11.75;10.00;;;;;;;;5038917;28;45476;-72
2022/04/06 09:09:50;;;;;;;;;11.75;11.00;;;;;;;;5038816;28;45504;-72
2022/04/06 09:12:17;;;;;;;;;8.25;8.00;;;;;;;;5040112;28;45235;-73
2022/04/06 09:14:42;;;;;;;;;9.50;9.25;;;;;;;;5039416;28;46207;-73
2022/04/06 09:17:08;;;;;;;;;10.75;10.00;;;;;;;;5039316;28;45393;-72
2022/04/06 09:19:36;;;;;;;;;19.75;17.75;;;;;;;;5039868;28;45156;-73
2022/04/06 09:22:05;;;;;;;;;27.75;26.50;;;;;;;;5039928;28;45500;-73
2022/04/06 09:24:30;;;;;;;;;15.00;14.25;;;;;;;;5039519;28;46349;-73
2022/04/06 09:26:58;;;;;;;;;14.50;13.50;;;;;;;;5039444;28;45266;-73
2022/04/06 09:29:24;;;;;;;;;26.75;24.00;;;;;;;;5039342;28;45219;-73
2022/04/06 09:31:49;;;;;;;;;17.50;15.50;;;;;;;;5039566;28;45468;-73
2022/04/06 09:34:15;;;;;;;;;12.75;12.00;;;;;;;;5036754;28;45694;-73
2022/04/06 09:36:40;;;;;;;;;18.00;17.00;;;;;;;;5036500;28;45330;-73
2022/04/06 09:39:06;;;;;;;;;16.75;16.00;;;;;;;;5039652;28;45354;-73
2022/04/06 09:41:32;;;;;;;;;21.75;18.75;;;;;;;;5037909;28;45518;-73
2022/04/06 09:44:08;;;;;;;;;12.00;11.25;;;;;;;;5039379;28;45451;-73
2022/04/06 09:49:18;;;;;;;;;19.50;18.50;;;;;;;;5039317;28;45302;-73
2022/04/06 09:51:51;;;;;;;;;12.50;11.75;;;;;;;;5039608;28;45766;-72
2022/04/06 09:54:17;;;;;;;;;12.75;12.00;;;;;;;;5039037;28;46088;-73
2022/04/06 09:56:43;;;;;;;;;14.50;13.50;;;;;;;;5039072;28;45503;-73
2022/04/06 09:59:09;;;;;;;;;15.00;13.50;;;;;;;;5039421;28;45207;-72
2022/04/06 10:01:35;;;;;;;;;19.00;18.00;;;;;;;;5038436;28;45478;-73
2022/04/06 10:04:03;;;;;;;;;13.00;12.00;;;;;;;;5039008;28;45359;-73
2022/04/06 10:06:30;;;;;;;;;13.75;13.75;;;;;;;;5038632;28;45552;-73
2022/04/06 10:08:56;;;;;;;;;23.75;23.00;;;;;;;;5038226;28;45511;-73
2022/04/06 10:11:21;;;;;;;;;16.75;15.00;;;;;;;;5039201;28;45615;-73
2022/04/06 10:13:47;;;;;;;;;9.67;9.67;;;;;;;;5038602;28;46261;-73
2022/04/06 10:16:12;;;;;;;;;12.33;12.00;;;;;;;;5038540;28;45329;-73
2022/04/06 10:18:38;;;;;;;;;13.67;12.33;;;;;;;;5037590;28;45404;-73
2022/04/06 10:21:03;;;;;;;;;12.75;12.50;;;;;;;;5036304;28;45465;-73
2022/04/06 10:23:32;;;;;;;;;11.67;11.00;;;;;;;;5037995;28;46563;-72
2022/04/06 10:26:06;;;;;;;;;10.33;9.67;;;;;;;;5038433;28;45287;-73
2022/04/06 10:28:33;;;;;;;;;12.67;12.33;;;;;;;;5038603;28;45471;-73
2022/04/06 10:31:19;;;;;;;;;10.33;9.67;;;;;;;;5038367;28;45344;-73
2022/04/06 10:33:45;;;;;;;;;14.67;13.67;;;;;;;;5037932;28;46210;-73
2022/04/06 10:36:32;;;;;;;;;15.75;14.50;;;;;;;;5038379;28;45244;-73
2022/04/06 10:39:04;;;;;;;;;17.25;16.25;;;;;;;;5038390;28;45490;-73
2022/04/06 10:41:29;;;;;;;;;11.75;11.00;;;;;;;;5038490;28;45405;-73
2022/04/06 10:43:55;;;;;;;;;9.33;8.67;;;;;;;;5038457;28;45871;-72
2022/04/06 10:46:34;;;;;;;;;14.33;12.00;;;;;;;;5036776;28;45490;-73
2022/04/06 10:49:05;;;;;;;;;11.00;10.67;;;;;;;;5038166;28;45326;-73
2022/04/06 10:51:35;;;;;;;;;9.50;9.25;;;;;;;;5037996;28;45318;-72
2022/04/06 10:54:12;;;;;;;;;14.50;11.75;;;;;;;;5037818;28;46122;-73
2022/04/06 10:56:49;;;;;;;;;23.75;22.75;;;;;;;;5037609;28;45310;-73
2022/04/06 10:59:15;;;;;;;;;61.50;47.00;;;;;;;;5038041;28;45472;-73
2022/04/06 11:01:45;;;;;;;;;39.00;35.75;;;;;;;;5037914;28;45537;-73
2022/04/06 11:04:23;;;;;;;;;11.00;9.67;;;;;;;;5038060;28;45417;-73
2022/04/06 11:06:52;;;;;;;;;11.33;11.33;;;;;;;;5036863;28;45868;-73
2022/04/06 11:12:20;;;;;;;;;16.50;14.00;;;;;;;;5037316;28;45279;-73
2022/04/06 11:14:47;;;;;;;;;10.00;7.67;;;;;;;;5037603;28;45488;-73
2022/04/06 11:17:30;;;;;;;;;18.00;16.33;;;;;;;;5037722;28;45308;-73
2022/04/06 11:19:55;;;;;;;;;11.67;11.67;;;;;;;;5038089;28;45504;-73
2022/04/06 11:22:21;;;;;;;;;14.00;13.33;;;;;;;;5037628;28;45387;-73
2022/04/06 11:24:47;;;;;;;;;11.00;11.00;;;;;;;;5035954;28;47508;-72
2022/04/06 11:27:25;;;;;;;;;10.33;9.33;;;;;;;;5037853;28;45457;-73
2022/04/06 11:29:57;;;;;;;;;14.00;12.33;;;;;;;;5036023;28;45465;-73
2022/04/06 11:32:22;;;;;;;;;14.00;14.00;;;;;;;;5036360;28;45652;-73
2022/04/06 11:34:47;;;;;;;;;10.67;10.00;;;;;;;;5036221;28;46226;-73
2022/04/06 11:37:13;;;;;;;;;15.67;15.00;;;;;;;;5037473;28;45321;-73
2022/04/06 11:39:38;;;;;;;;;11.00;10.00;;;;;;;;5037502;28;45267;-73
2022/04/06 11:42:05;;;;;;;;;21.25;19.50;;;;;;;;5037936;28;45402;-73
2022/04/06 11:44:30;;;;;;;;;21.00;16.00;;;;;;;;5037700;28;45484;-73
2022/04/06 11:46:56;;;;;;;;;33.00;29.25;;;;;;;;5037811;28;45826;-73
2022/04/06 11:49:26;;;;;;;;;31.25;28.75;;;;;;;;5037696;28;45529;-73
2022/04/06 11:51:55;;;;;;;;;9.33;9.00;;;;;;;;5037797;28;45253;-73
2022/04/06 11:54:21;;;;;;;;;26.50;24.25;;;;;;;;5037088;28;45436;-73
2022/04/06 11:56:53;;;;;;;;;25.00;23.75;;;;;;;;5037197;28;45461;-73
2022/04/06 11:59:19;;;;;;;;;18.33;15.67;;;;;;;;5037578;28;45489;-73
2022/04/06 12:01:48;;;;;;;;;21.00;18.00;;;;;;;;5037575;28;45176;-73
2022/04/06 12:04:18;;;;;;;;;12.00;11.00;;;;;;;;5037361;28;45311;-73
2022/04/06 12:06:44;;;;;;;;;13.33;12.67;;;;;;;;5037210;28;45286;-73
2022/04/06 12:09:10;;;;;;;;;11.00;10.00;;;;;;;;5037201;28;45268;-73
2022/04/06 12:11:36;;;;;;;;;11.67;11.33;;;;;;;;5037338;28;45394;-73
2022/04/06 12:14:01;;;;;;;;;13.25;11.75;;;;;;;;5037481;28;46150;-73
2022/04/06 12:16:27;;;;;;;;;13.67;12.33;;;;;;;;5036870;28;45778;-73
2022/04/06 12:18:52;;;;;;;;;12.33;12.00;;;;;;;;5037686;28;45278;-73
2022/04/06 12:21:21;;;;;;;;;12.33;12.33;;;;;;;;5037704;28;45269;-73
2022/04/06 12:23:47;;;;;;;;;14.33;12.33;;;;;;;;5036750;28;45529;-72
2022/04/06 12:26:12;;;;;;;;;17.00;15.75;;;;;;;;5036819;28;45490;-73
2022/04/06 12:28:38;;;;;;;;;15.75;14.75;;;;;;;;5035778;28;45298;-73
2022/04/06 12:31:05;;;;;;;;;19.50;16.25;;;;;;;;5037701;28;45516;-73
2022/04/06 12:33:31;;;;;;;;;15.50;15.00;;;;;;;;5035809;28;46551;-73
2022/04/06 12:36:09;;;;;;;;;22.50;20.00;;;;;;;;5036343;28;45407;-73
2022/04/06 12:38:35;;;;;;;;;15.25;14.25;;;;;;;;5036173;28;45452;-73
2022/04/06 12:41:11;;;;;;;;;16.00;13.00;;;;;;;;5036764;28;45351;-73
2022/04/06 12:43:46;;;;;;;;;22.50;21.50;;;;;;;;5036360;28;45266;-73
2022/04/06 12:46:11;;;;;;;;;14.25;13.50;;;;;;;;5035030;28;45365;-73
2022/04/06 12:48:37;;;;;;;;;13.33;12.33;;;;;;;;5035211;28;45488;-72
2022/04/06 12:51:20;;;;;;;;;11.67;11.67;;;;;;;;5035480;28;45465;-73
2022/04/06 12:53:46;;;;;;;;;9.33;9.33;;;;;;;;5036608;28;45558;-73
2022/04/06 12:56:12;;;;;;;;;12.00;11.00;;;;;;;;5036404;28;45759;-73
2022/04/06 12:58:37;;;;;;;;;10.00;10.00;;;;;;;;5035378;28;45389;-73
2022/04/06 13:01:09;;;;;;;;;11.00;11.00;;;;;;;;5037151;28;45413;-72
2022/04/06 13:03:34;;;;;;;;;11.33;10.67;;;;;;;;5036362;28;46644;-73
2022/04/06 13:06:00;;;;;;;;;9.50;8.25;;;;;;;;5034766;28;45563;-73
2022/04/06 13:08:25;;;;;;;;;8.33;8.00;;;;;;;;5036832;28;45504;-73
2022/04/06 13:10:51;;;;;;;;;8.33;8.00;;;;;;;;5036816;28;45416;-73
2022/04/06 13:13:17;;;;;;;;;11.00;10.33;;;;;;;;5036091;28;46236;-73
2022/04/06 13:15:42;;;;;;;;;9.33;8.33;;;;;;;;5036273;28;45390;-74
2022/04/06 13:18:07;;;;;;;;;8.67;8.33;;;;;;;;5036002;28;45453;-73
2022/04/06 13:20:33;;;;;;;;;23.25;21.50;;;;;;;;5035338;28;45343;-73
2022/04/06 13:22:58;;;;;;;;;19.75;19.25;;;;;;;;5033963;28;46893;-73
2022/04/06 13:25:24;;;;;;;;;19.25;18.25;;;;;;;;5036043;28;45507;-73
2022/04/06 13:27:50;;;;;;;;;11.33;11.33;;;;;;;;5036181;28;45449;-73
2022/04/06 13:30:16;;;;;;;;;10.00;9.67;;;;;;;;5035810;28;45235;-73
2022/04/06 13:32:43;;;;;;;;;9.33;9.33;;;;;;;;5035995;28;45808;-73
2022/04/06 13:35:08;;;;;;;;;8.33;8.33;;;;;;;;5034067;28;45520;-73
2022/04/06 13:37:34;;;;;;;;;6.67;6.33;;;;;;;;5038992;28;45440;-73
2022/04/06 13:39:59;;;;;;;;;4.67;4.67;;;;;;;;5039884;28;45725;-73
2022/04/06 13:42:25;;;;;;;;;9.00;6.75;;;;;;;;5039144;28;46523;-73
2022/04/06 13:44:50;;;;;;;;;8.50;8.25;;;;;;;;5039041;28;45389;-73
2022/04/06 13:47:15;;;;;;;;;10.67;9.33;;;;;;;;5039420;28;45508;-73
2022/04/06 13:49:41;;;;;;;;;11.00;11.00;;;;;;;;5038028;28;45347;-73
2022/04/06 13:52:06;;;;;;;;;5.67;5.33;;;;;;;;5039135;28;45466;-73
2022/04/06 13:54:32;;;;;;;;;5.00;5.00;;;;;;;;5039091;28;45339;-73
2022/04/06 13:56:58;;;;;;;;;14.00;14.00;;;;;;;;5039010;28;45305;-73
2022/04/06 13:59:23;;;;;;;;;9.67;8.67;;;;;;;;5039253;28;45536;-73
2022/04/06 14:01:49;;;;;;;;;13.50;12.50;;;;;;;;5039050;28;46253;-73
2022/04/06 14:04:15;;;;;;;;;5.67;5.67;;;;;;;;5039081;28;45421;-73
2022/04/06 14:06:40;;;;;;;;;16.00;15.25;;;;;;;;5041448;28;45484;-74
2022/04/06 14:09:07;;;;;;;;;5.67;5.67;;;;;;;;5047371;28;45217;-74
2022/04/06 14:11:33;;;;;;;;;6.33;6.00;;;;;;;;5045215;28;45688;-74
2022/04/06 14:13:59;;;;;;;;;6.00;6.00;;;;;;;;5047970;28;45332;-73
2022/04/06 14:16:24;;;;;;;;;5.00;5.00;;;;;;;;5046455;28;45801;-74
2022/04/06 14:18:50;;;;;;;;;7.67;6.33;;;;;;;;5047238;28;45504;-74
2022/04/06 14:21:17;;;;;;;;;6.33;6.33;;;;;;;;5047721;28;46165;-73
2022/04/06 14:23:42;;;;;;;;;6.33;6.33;;;;;;;;5045727;28;45354;-73
2022/04/06 14:26:09;;;;;;;;;7.25;7.25;;;;;;;;5042138;28;45365;-86
2022/04/06 14:28:35;;;;;;;;;7.00;7.00;;;;;;;;5036960;28;45591;-74